Time;durP1;ratioP1;P1;durP2;ratioP2;P2;SDS_P1;SDS_P2;PMS_P1;PMS_P2;Temp;Humidity;BMP_temperature;BMP_pressure;BME280_temperature;BME280_humidity;BME280_pressure;Samples;Min_cycle;Max_cycle;Signal;HPM_P1;HPM_P2
2022/06/02 00:01:21;;;;;;;11.02;1.60;;;;;;;43.91;4.52;100511.09;5089401;28;20024;-66
2022/06/02 00:03:58;;;;;;;6.18;1.50;;;;;;;43.74;4.53;100498.66;5086389;28;20172;-66
2022/06/02 00:06:55;;;;;;;6.60;1.33;;;;;;;43.19;5.13;100504.31;5089707;28;20020;-66
2022/06/02 00:10:22;;;;;;;4.95;1.30;;;;;;;43.17;5.04;100495.44;5086993;28;20028;-66
2022/06/02 00:13:21;;;;;;;5.32;1.02;;;;;;;43.21;4.87;100496.81;5030426;28;20116;-65
2022/06/02 00:15:54;;;;;;;9.23;1.65;;;;;;;40.79;6.08;100505.72;5024576;28;20045;-65
2022/06/02 00:18:30;;;;;;;8.95;1.40;;;;;;;41.09;5.83;100504.69;5079983;28;20044;-65
2022/06/02 00:21:16;;;;;;;9.57;1.55;;;;;;;42.30;5.12;100492.06;5086850;28;20044;-65
2022/06/02 00:23:54;;;;;;;13.15;1.67;;;;;;;42.70;5.11;100494.38;5088731;28;20032;-66
2022/06/02 00:26:41;;;;;;;7.68;1.40;;;;;;;42.78;5.50;100489.84;5083119;28;20073;-66
2022/06/02 00:29:19;;;;;;;9.70;1.52;;;;;;;42.81;5.04;100492.50;5083905;28;20093;-66
2022/06/02 00:31:56;;;;;;;5.85;1.40;;;;;;;41.68;5.44;100492.88;5088567;28;20032;-66
2022/06/02 00:34:37;;;;;;;8.32;1.50;;;;;;;41.25;5.88;100489.28;5085235;28;20055;-69
2022/06/02 00:37:34;;;;;;;6.53;1.40;;;;;;;40.53;5.82;100491.84;5077921;28;20410;-68
2022/06/02 00:40:03;;;;;;;3.42;1.10;;;;;;;41.58;5.38;100481.47;5085927;28;20039;-69
2022/06/02 00:42:34;;;;;;;8.27;1.40;;;;;;;41.77;5.09;100481.38;5086414;28;20122;-69
2022/06/02 00:45:15;;;;;;;7.85;1.27;;;;;;;41.70;5.50;100476.84;5089405;28;20038;-69
2022/06/02 00:48:02;;;;;;;5.90;1.30;;;;;;;42.01;5.40;100479.28;5084616;28;20020;-68
2022/06/02 00:50:41;;;;;;;8.93;1.30;;;;;;;42.11;5.30;100475.09;5083677;28;20058;-69
2022/06/02 00:53:23;;;;;;;9.10;1.25;;;;;;;41.88;5.21;100478.75;5075285;28;20070;-68
2022/06/02 00:59:20;;;;;;;7.07;1.30;;;;;;;41.60;5.00;100476.06;5073269;28;20041;-69
2022/06/02 01:01:47;;;;;;;5.85;1.33;;;;;;;41.41;5.50;100479.53;5078814;28;20035;-68
2022/06/02 01:04:17;;;;;;;8.38;1.67;;;;;;;41.33;5.24;100477.03;5080939;28;20096;-68
2022/06/02 01:07:23;;;;;;;7.88;1.70;;;;;;;41.32;5.38;100486.09;5077442;28;20116;-67
2022/06/02 01:10:18;;;;;;;11.32;1.40;;;;;;;40.99;5.60;100478.28;5068258;28;20040;-66
2022/06/02 01:12:47;;;;;;;;;;;;;;;40.87;5.63;100479.25;5079061;28;20028;-67
2022/06/02 01:15:28;;;;;;;4.00;1.38;;;;;;;40.30;5.88;100473.31;5077032;28;19958;-67
2022/06/02 01:18:03;;;;;;;7.32;1.52;;;;;;;39.19;6.18;100480.09;5076372;28;20036;-67
2022/06/02 01:20:43;;;;;;;5.90;1.05;;;;;;;38.94;6.27;100481.03;5078686;28;20032;-67
2022/06/02 01:23:28;;;;;;;7.55;1.30;;;;;;;39.63;6.18;100476.28;5077278;28;20064;-66
2022/06/02 01:26:07;;;;;;;7.82;1.25;;;;;;;39.93;5.45;100474.59;5077377;28;20029;-66
2022/06/02 01:28:41;;;;;;;8.15;2.00;;;;;;;40.06;5.52;100473.19;5076248;28;20103;-69
2022/06/02 01:31:28;;;;;;;10.63;1.60;;;;;;;39.81;5.77;100477.09;5078489;28;20032;-67
2022/06/02 01:34:14;;;;;;;13.02;1.90;;;;;;;39.90;6.16;100472.69;5077040;28;20046;-67
2022/06/02 01:36:49;;;;;;;9.32;1.30;;;;;;;39.65;5.99;100463.16;5077970;28;20029;-67
2022/06/02 01:39:38;;;;;;;9.43;1.42;;;;;;;39.71;5.98;100474.72;5078624;28;20547;-67
2022/06/02 01:42:26;;;;;;;10.40;1.40;;;;;;;39.53;6.16;100464.09;5080124;28;20143;-67
2022/06/02 01:45:13;;;;;;;8.85;1.25;;;;;;;39.48;5.73;100470.38;5075586;28;20505;-67
2022/06/02 01:47:42;;;;;;;11.50;1.30;;;;;;;39.03;6.04;100473.84;5073515;28;20078;-68
2022/06/02 01:50:31;;;;;;;9.23;1.45;;;;;;;38.14;6.59;100472.28;5080108;28;20030;-67
2022/06/02 01:53:05;;;;;;;8.85;1.67;;;;;;;38.32;6.58;100474.50;5075594;28;20504;-67
2022/06/02 01:55:44;;;;;;;5.03;1.13;;;;;;;38.26;6.68;100470.69;5079125;28;20035;-66
2022/06/02 01:58:44;;;;;;;6.22;1.38;;;;;;;38.03;6.64;100475.50;5081652;28;20029;-67
2022/06/02 02:01:26;;;;;;;6.20;1.38;;;;;;;37.83;6.66;100483.53;5086178;28;20474;-67
2022/06/02 02:04:31;;;;;;;8.57;1.45;;;;;;;37.44;6.54;100482.78;5085203;28;20028;-66
2022/06/02 02:07:12;;;;;;;6.75;1.33;;;;;;;37.19;6.93;100477.13;5089667;28;20072;-67
2022/06/02 02:10:27;;;;;;;12.13;1.77;;;;;;;36.90;7.32;100469.50;5088398;28;20490;-67
2022/06/02 02:13:03;;;;;;;9.07;1.70;;;;;;;36.49;7.56;100483.69;5080901;28;20407;-67
2022/06/02 02:16:00;;;;;;;7.57;2.20;;;;;;;36.29;7.85;100484.63;5079769;28;20100;-66
2022/06/02 02:18:56;;;;;;;10.35;2.83;;;;;;;36.12;6.83;100483.06;5081031;28;20016;-67
2022/06/02 02:21:44;;;;;;;7.30;2.97;;;;;;;35.88;6.69;100487.34;5081374;28;20044;-66
2022/06/02 02:24:29;;;;;;;8.75;4.75;;;;;;;35.65;7.01;100483.47;5081444;28;20036;-66
2022/06/02 02:27:11;;;;;;;8.45;3.13;;;;;;;35.37;7.07;100484.16;5082243;28;20033;-67
2022/06/02 02:29:59;;;;;;;6.65;2.83;;;;;;;35.10;7.95;100478.72;5086021;28;20028;-67
2022/06/02 02:32:51;;;;;;;11.30;2.80;;;;;;;34.86;8.11;100483.72;5082735;28;20039;-64
2022/06/02 02:35:39;;;;;;;9.45;3.22;;;;;;;34.65;8.21;100486.97;5081319;28;20500;-65
2022/06/02 02:38:30;;;;;;;10.63;3.45;;;;;;;34.52;8.33;100484.81;5084041;28;20521;-67
2022/06/02 02:41:02;;;;;;;12.75;3.95;;;;;;;34.40;8.30;100491.09;5084182;28;20059;-66
2022/06/02 02:44:14;;;;;;;14.15;5.30;;;;;;;34.21;8.95;100486.22;5080260;28;20386;-66
2022/06/02 02:46:46;;;;;;;11.95;3.30;;;;;;;34.04;9.27;100487.34;5079229;28;20115;-66
2022/06/02 02:49:32;;;;;;;14.98;3.10;;;;;;;33.69;9.41;100494.38;5082583;28;20032;-65
2022/06/02 02:52:12;;;;;;;13.57;3.58;;;;;;;33.47;9.39;100499.59;5084594;28;20047;-65
2022/06/02 02:55:13;;;;;;;9.10;3.80;;;;;;;33.19;10.09;100506.41;5080399;28;20028;-65
2022/06/02 02:58:20;;;;;;;14.93;3.75;;;;;;;33.04;9.67;100491.75;5062675;28;20055;-66
2022/06/02 03:01:28;;;;;;;11.60;3.75;;;;;;;32.83;9.95;100489.22;5079959;28;20075;-65
2022/06/02 03:04:16;;;;;;;18.42;5.90;;;;;;;32.64;9.86;100494.25;5050321;28;20044;-67
2022/06/02 03:06:43;;;;;;;17.35;4.57;;;;;;;32.52;10.34;100496.84;5091048;28;20056;-66
2022/06/02 03:09:20;;;;;;;18.45;4.60;;;;;;;32.28;10.52;100502.31;5091219;28;20031;-66
2022/06/02 03:11:52;;;;;;;13.98;4.13;;;;;;;32.38;10.71;100506.25;5094120;28;20028;-66
2022/06/02 03:15:01;;;;;;;13.32;4.63;;;;;;;32.53;10.57;100516.13;5094558;28;20483;-66
2022/06/02 03:17:46;;;;;;;16.75;5.47;;;;;;;32.28;10.33;100504.31;5091075;28;20036;-65
2022/06/02 03:20:42;;;;;;;19.27;8.50;;;;;;;32.06;10.42;100515.78;5094611;28;20024;-66
2022/06/02 03:23:27;;;;;;;25.38;9.05;;;;;;;32.08;11.00;100515.34;5045500;28;20454;-65
2022/06/02 03:26:10;;;;;;;22.35;9.07;;;;;;;31.73;11.14;100508.84;5091775;28;20040;-66
2022/06/02 03:28:41;;;;;;;19.90;9.23;;;;;;;31.40;11.30;100512.28;5092117;28;20028;-66
2022/06/02 03:31:19;;;;;;;20.35;9.02;;;;;;;31.27;11.97;100512.00;5093888;28;20383;-69
2022/06/02 03:33:58;;;;;;;21.33;9.05;;;;;;;31.02;12.14;100517.69;5093836;28;20028;-65
2022/06/02 03:37:06;;;;;;;25.90;9.60;;;;;;;30.82;12.15;100511.00;5093036;28;20067;-65
2022/06/02 03:39:42;;;;;;;22.85;9.65;;;;;;;30.66;11.98;100511.47;5090208;28;20040;-67
2022/06/02 03:42:40;;;;;;;24.63;9.15;;;;;;;30.58;12.29;100507.06;5093980;28;20543;-65
2022/06/02 03:45:16;;;;;;;24.08;8.75;;;;;;;30.45;12.77;100506.69;5092970;28;20032;-67
2022/06/02 03:48:14;;;;;;;24.67;8.85;;;;;;;30.36;12.80;100507.13;5093214;28;20445;-65
2022/06/02 03:50:47;;;;;;;50.83;10.10;;;;;;;30.30;13.14;100514.34;5060193;28;20040;-65
2022/06/02 03:53:47;;;;;;;42.45;9.60;;;;;;;30.23;13.20;100514.38;5093623;28;20478;-64
2022/06/02 03:56:46;;;;;;;41.38;9.15;;;;;;;30.13;13.80;100514.38;5081852;28;20481;-66
2022/06/02 03:59:24;;;;;;;25.80;8.40;;;;;;;29.99;14.26;100515.19;5091010;28;20150;-65
2022/06/02 04:02:21;;;;;;;48.13;9.10;;;;;;;29.89;14.22;100516.00;5093780;28;20502;-65
2022/06/02 04:05:14;;;;;;;31.30;9.32;;;;;;;29.74;14.48;100524.41;5090726;28;20043;-66
2022/06/02 04:08:19;;;;;;;33.88;9.60;;;;;;;29.62;14.44;100521.97;5092891;28;20036;-66
2022/06/02 04:13:37;;;;;;;33.13;10.27;;;;;;;29.37;15.40;100529.53;5082384;28;20524;-68
2022/06/02 04:14:27;;;;;;;41.35;11.10;;;;;;;29.31;15.68;100537.53;5064437;28;20056;-67
2022/06/02 04:17:03;;;;;;;41.97;10.60;;;;;;;29.39;15.44;100538.34;5094022;28;20146;-65
2022/06/02 04:23:08;;;;;;;54.53;11.18;;;;;;;29.20;16.43;100539.50;5082338;28;20562;-67
2022/06/02 04:26:12;;;;;;;48.70;10.90;;;;;;;29.02;15.94;100547.84;5092985;28;20398;-68
2022/06/02 04:29:06;;;;;;;44.05;10.55;;;;;;;28.96;15.54;100554.22;5062955;28;20034;-66
2022/06/02 04:31:48;;;;;;;52.53;10.70;;;;;;;28.71;21.49;100557.66;5090574;28;20074;-65
2022/06/02 04:34:35;;;;;;;43.17;9.75;;;;;;;28.40;18.79;100561.09;5077540;28;20055;-66
2022/06/02 04:37:23;;;;;;;43.53;9.68;;;;;;;28.33;18.94;100561.84;5092271;28;20032;-65
2022/06/02 04:40:09;;;;;;;38.85;8.60;;;;;;;28.56;16.61;100568.00;5093301;28;20056;-65
2022/06/02 04:42:48;;;;;;;44.03;9.73;;;;;;;28.54;17.58;100575.13;5093519;28;20032;-66
2022/06/02 04:45:43;;;;;;;41.40;9.20;;;;;;;28.67;23.78;100575.63;5093246;28;20036;-65
2022/06/02 04:48:20;;;;;;;43.72;9.45;;;;;;;29.10;15.75;100576.66;5076402;28;20036;-66
2022/06/02 04:50:58;;;;;;;45.10;9.80;;;;;;;29.43;15.15;100579.13;5093031;28;20048;-65
2022/06/02 04:53:51;;;;;;;64.50;13.75;;;;;;;30.02;14.10;100576.03;5093122;28;20043;-66
2022/06/02 04:56:27;;;;;;;75.13;15.00;;;;;;;29.90;13.94;100573.63;5089949;28;20031;-66
2022/06/02 04:59:16;;;;;;;75.60;14.20;;;;;;;29.51;14.30;100573.59;5092899;28;20043;-66
2022/06/02 05:02:04;;;;;;;90.63;16.75;;;;;;;29.11;14.60;100579.06;5093017;28;20031;-67
2022/06/02 05:05:09;;;;;;;82.95;15.63;;;;;;;28.86;16.08;100578.94;5091792;28;20043;-65
2022/06/02 05:07:51;;;;;;;85.53;15.87;;;;;;;28.72;15.67;100580.84;5079089;28;20055;-65
2022/06/02 05:10:43;;;;;;;90.00;16.40;;;;;;;28.67;15.16;100587.59;5076560;28;20035;-65
2022/06/02 05:13:28;;;;;;;87.30;16.85;;;;;;;28.64;15.61;100594.00;5091000;28;20031;-65
2022/06/02 05:15:58;;;;;;;;;;;;;;;28.57;16.46;100589.16;5091007;28;20035;-67
2022/06/02 05:18:55;;;;;;;78.72;16.60;;;;;;;28.17;18.57;100604.00;5090891;28;20050;-68
2022/06/02 05:22:02;;;;;;;83.45;16.25;;;;;;;27.98;16.90;100607.84;5038943;28;20036;-67
2022/06/02 05:24:50;;;;;;;86.55;16.75;;;;;;;27.90;16.68;100603.41;5078849;28;20114;-66
2022/06/02 05:27:48;;;;;;;94.03;15.27;;;;;;;27.70;19.04;100610.38;5091393;28;20043;-65
2022/06/02 05:30:52;;;;;;;87.63;16.52;;;;;;;27.64;18.96;100603.53;5083321;28;20032;-67
2022/06/02 05:33:40;;;;;;;115.05;16.30;;;;;;;27.73;19.56;100600.44;5092044;28;20063;-65
2022/06/02 05:36:31;;;;;;;84.10;16.67;;;;;;;27.81;17.39;100600.09;5090997;28;20042;-65
2022/06/02 05:39:26;;;;;;;87.88;17.38;;;;;;;27.76;18.11;100605.25;5074141;28;20382;-66
2022/06/02 05:42:01;;;;;;;89.50;20.45;;;;;;;27.62;17.58;100605.88;5089585;28;20055;-65
2022/06/02 05:44:55;;;;;;;79.00;19.85;;;;;;;27.45;18.93;100595.31;5072812;28;20036;-66
2022/06/02 05:47:44;;;;;;;77.20;18.35;;;;;;;27.52;18.08;100603.78;5089647;28;20063;-66
2022/06/02 05:50:32;;;;;;;83.18;16.88;;;;;;;27.85;17.32;100602.97;5080408;28;20032;-67
2022/06/02 05:53:08;;;;;;;90.80;18.17;;;;;;;27.64;18.81;100598.75;5071769;28;20483;-67
2022/06/02 05:55:45;;;;;;;99.88;17.67;;;;;;;27.72;17.47;100593.25;5087913;28;20499;-67
2022/06/02 05:58:18;;;;;;;84.00;15.30;;;;;;;27.76;17.92;100597.69;5091076;28;20127;-68
2022/06/02 06:00:48;;;;;;;65.63;15.18;;;;;;;27.72;17.81;100593.25;5090021;28;20039;-68
2022/06/02 06:03:32;;;;;;;77.30;16.73;;;;;;;27.49;18.59;100593.41;5092181;28;20036;-67
2022/06/02 06:06:28;;;;;;;63.35;14.90;;;;;;;27.41;18.98;100589.72;5090680;28;20444;-68
2022/06/02 06:09:28;;;;;;;75.70;14.57;;;;;;;27.54;18.62;100587.47;5090674;28;20043;-68
2022/06/02 06:12:20;;;;;;;45.58;11.27;;;;;;;27.44;18.95;100586.16;5053521;28;20040;-68
2022/06/02 06:15:33;;;;;;;62.38;13.20;;;;;;;27.29;19.23;100590.78;5077364;28;20028;-67
2022/06/02 06:18:03;;;;;;;54.40;12.75;;;;;;;27.26;19.37;100582.34;5072948;28;20085;-67
2022/06/02 06:20:38;;;;;;;83.78;13.30;;;;;;;27.12;19.61;100585.00;5087415;28;20115;-68
2022/06/02 06:23:13;;;;;;;53.75;12.90;;;;;;;26.95;20.54;100589.94;5090335;28;20047;-68
2022/06/02 06:25:46;;;;;;;;;;;;;;;26.89;20.57;100591.44;5090774;28;20052;-67
2022/06/02 06:28:12;;;;;;;56.45;13.32;;;;;;;27.01;20.09;100582.88;5092397;28;20389;-66
2022/06/02 06:30:58;;;;;;;68.25;13.77;;;;;;;26.95;20.51;100587.16;5091151;28;20047;-67
2022/06/02 06:33:43;;;;;;;57.65;12.90;;;;;;;26.80;21.17;100588.97;5091166;28;20121;-66
2022/06/02 06:36:57;;;;;;;54.63;12.57;;;;;;;26.74;21.21;100584.06;5089040;28;20081;-69
2022/06/02 06:39:50;;;;;;;69.07;13.90;;;;;;;26.77;20.59;100586.94;5091027;28;20036;-66
2022/06/02 06:42:22;;;;;;;69.80;17.42;;;;;;;26.62;20.69;100587.91;5079851;28;20048;-70
2022/06/02 06:45:04;;;;;;;63.00;16.58;;;;;;;26.68;21.29;100591.97;5090425;28;20486;-69
2022/06/02 06:47:39;;;;;;;58.35;13.15;;;;;;;26.41;21.32;100587.59;5093692;28;20039;-69
2022/06/02 06:50:08;;;;;;;;;;;;;;;26.26;22.02;100594.09;5094046;28;20035;-69
2022/06/02 06:53:04;;;;;;;55.45;13.45;;;;;;;26.28;21.33;100588.97;5095876;28;19927;-68
2022/06/02 06:55:53;;;;;;;73.75;14.70;;;;;;;26.37;21.73;100592.28;5092885;28;20035;-67
2022/06/02 06:58:26;;;;;;;64.75;14.95;;;;;;;26.33;21.65;100594.19;5094282;28;20123;-67
2022/06/02 07:01:15;;;;;;;70.40;14.38;;;;;;;26.26;22.35;100585.75;5093625;28;20035;-67
2022/06/02 07:03:57;;;;;;;70.35;14.35;;;;;;;26.02;22.29;100584.94;5084036;28;20039;-66
2022/06/02 07:06:41;;;;;;;60.67;15.73;;;;;;;25.96;21.48;100582.88;5093785;28;20032;-66
2022/06/02 07:09:23;;;;;;;72.72;15.57;;;;;;;25.92;21.97;100580.03;5095134;28;20553;-67
2022/06/02 07:14:43;;;;;;;54.40;14.68;;;;;;;25.88;22.29;100585.53;5095689;28;20036;-67
2022/06/02 07:17:29;;;;;;;71.03;16.10;;;;;;;25.77;21.87;100580.94;5095252;28;20469;-68
2022/06/02 07:20:04;;;;;;;56.88;15.45;;;;;;;25.75;21.26;100589.69;5092564;28;20032;-67
2022/06/02 07:23:18;;;;;;;48.45;15.40;;;;;;;25.82;21.53;100584.22;5095316;28;20123;-66
2022/06/02 07:26:17;;;;;;;62.15;16.08;;;;;;;25.71;21.13;100582.44;5042148;28;20068;-66
2022/06/02 07:29:06;;;;;;;66.60;15.45;;;;;;;25.78;21.08;100583.38;5043726;28;20538;-66
2022/06/02 07:31:49;;;;;;;52.45;15.07;;;;;;;25.66;21.44;100583.50;5087865;28;20028;-67
2022/06/02 07:34:38;;;;;;;50.45;16.02;;;;;;;25.54;21.09;100581.72;5093033;28;20039;-69
2022/06/02 07:37:44;;;;;;;58.40;15.05;;;;;;;25.45;21.90;100577.56;5094620;28;20115;-67
2022/06/02 07:40:22;;;;;;;64.57;16.00;;;;;;;25.50;22.03;100578.06;5076350;28;20040;-67
2022/06/02 07:43:26;;;;;;;64.65;17.60;;;;;;;25.49;21.90;100579.22;5094948;28;20032;-67
2022/06/02 07:46:16;;;;;;;68.78;18.33;;;;;;;25.41;23.66;100577.50;5093533;28;20036;-67
2022/06/02 07:49:13;;;;;;;89.57;20.45;;;;;;;25.38;22.75;100578.22;5095005;28;20489;-67
2022/06/02 07:51:51;;;;;;;81.70;17.80;;;;;;;25.38;23.04;100578.22;5093604;28;20036;-67
2022/06/02 07:54:37;;;;;;;71.90;17.13;;;;;;;25.42;22.17;100570.75;5079196;28;20059;-67
2022/06/02 07:57:18;;;;;;;73.75;15.70;;;;;;;25.43;22.23;100583.50;5093038;28;20036;-67
2022/06/02 08:00:18;;;;;;;67.47;15.75;;;;;;;25.44;22.56;100578.72;5094027;28;20024;-67
2022/06/02 08:02:52;;;;;;;63.55;15.57;;;;;;;25.37;22.83;100578.59;5093387;28;20070;-67
2022/06/02 08:05:29;;;;;;;61.45;19.60;;;;;;;25.14;24.46;100582.16;5093093;28;20048;-68
2022/06/02 08:08:01;;;;;;;65.07;15.55;;;;;;;25.16;24.41;100581.78;5093269;28;20122;-68
2022/06/02 08:10:56;;;;;;;48.97;12.18;;;;;;;25.39;24.41;100592.94;5094484;28;20036;-67
2022/06/02 08:13:43;;;;;;;48.42;11.30;;;;;;;25.41;23.25;100585.84;5093233;28;20039;-67
2022/06/02 08:16:24;;;;;;;40.58;10.07;;;;;;;25.49;23.72;100593.13;5094301;28;20028;-67
2022/06/02 08:19:15;;;;;;;30.98;9.20;;;;;;;25.44;23.28;100579.53;5093026;28;20089;-67
2022/06/02 08:21:46;;;;;;;47.05;9.38;;;;;;;25.42;23.35;100586.63;5094090;28;20040;-67
2022/06/02 08:24:38;;;;;;;39.65;9.73;;;;;;;25.33;23.96;100581.31;5077835;28;20046;-68
2022/06/02 08:27:41;;;;;;;39.53;9.90;;;;;;;25.11;23.96;100577.28;5093550;28;20048;-68
2022/06/02 08:30:38;;;;;;;31.33;9.68;;;;;;;25.11;24.04;100582.06;5093867;28;20110;-67
2022/06/02 08:33:24;;;;;;;39.92;10.10;;;;;;;25.09;24.04;100576.06;5093914;28;20040;-69
2022/06/02 08:35:59;;;;;;;38.55;11.73;;;;;;;25.11;24.09;100579.28;5092711;28;20047;-67
2022/06/02 08:38:55;;;;;;;49.63;15.52;;;;;;;25.11;24.20;100576.50;5092721;28;20032;-68
2022/06/02 08:41:33;;;;;;;41.00;14.18;;;;;;;24.77;24.51;100578.13;5092644;28;20058;-68
2022/06/02 08:44:23;;;;;;;41.72;12.10;;;;;;;24.58;25.19;100579.72;5093576;28;20036;-68
2022/06/02 08:47:17;;;;;;;32.22;10.77;;;;;;;24.52;25.55;100574.81;5093707;28;20032;-68
2022/06/02 08:50:09;;;;;;;34.50;9.10;;;;;;;24.51;25.47;100575.97;5092497;28;20036;-68
2022/06/02 08:53:49;;;;;;;32.58;9.57;;;;;;;24.41;25.88;100577.34;5080679;28;20032;-69
2022/06/02 08:57:01;;;;;;;34.00;8.45;;;;;;;24.28;26.22;100573.03;5084204;28;20490;-68
2022/06/02 08:59:52;;;;;;;34.92;9.00;;;;;;;24.49;25.60;100587.47;5022877;28;20072;-67
2022/06/02 09:02:40;;;;;;;50.95;10.98;;;;;;;24.92;24.51;100585.59;5076225;28;20122;-67
2022/06/02 09:05:45;;;;;;;62.63;11.77;;;;;;;24.71;25.35;100583.97;5091572;28;20036;-67
2022/06/02 09:08:41;;;;;;;37.00;10.80;;;;;;;24.71;25.66;100583.97;5076025;28;20044;-67
2022/06/02 09:11:38;;;;;;;35.22;10.50;;;;;;;24.66;25.20;100583.47;5089255;28;20364;-67
2022/06/02 09:14:13;;;;;;;36.08;11.32;;;;;;;24.66;25.48;100587.06;5092153;28;20028;-66
2022/06/02 09:17:10;;;;;;;39.35;11.98;;;;;;;24.78;24.95;100602.81;5093199;28;20078;-66
2022/06/02 09:20:03;;;;;;;44.17;14.30;;;;;;;24.74;25.18;100595.53;5075187;28;20127;-67
2022/06/02 09:23:02;;;;;;;44.17;12.25;;;;;;;24.62;24.99;100594.50;5077418;28;20556;-66
2022/06/02 09:25:38;;;;;;;41.60;12.55;;;;;;;24.49;26.14;100601.34;5092169;28;20054;-67
2022/06/02 09:28:37;;;;;;;49.90;12.95;;;;;;;24.48;25.60;100590.59;5091478;28;20036;-66
2022/06/02 09:31:31;;;;;;;40.13;10.95;;;;;;;24.36;25.78;100589.53;5091279;28;20393;-66
2022/06/02 09:34:39;;;;;;;35.17;10.75;;;;;;;24.31;25.97;100606.47;5091360;28;20127;-66
2022/06/02 09:37:24;;;;;;;45.80;11.63;;;;;;;24.59;25.62;100599.97;5091386;28;20036;-66
2022/06/02 09:40:41;;;;;;;36.95;11.32;;;;;;;24.29;25.83;100614.38;5092747;28;20036;-66
2022/06/02 09:43:32;;;;;;;40.42;11.80;;;;;;;23.90;26.46;100610.59;5048209;28;20047;-67
2022/06/02 09:46:21;;;;;;;49.47;12.45;;;;;;;23.75;26.72;100614.16;5092677;28;20111;-67
2022/06/02 09:49:26;;;;;;;34.13;12.18;;;;;;;23.92;26.22;100599.13;5092798;28;20174;-66
2022/06/02 09:52:09;;;;;;;47.65;12.85;;;;;;;23.95;26.34;100598.41;5058826;28;20049;-66
2022/06/02 09:55:04;;;;;;;42.13;12.20;;;;;;;23.85;26.43;100601.72;5091608;28;20559;-67
2022/06/02 09:57:57;;;;;;;54.13;15.10;;;;;;;24.07;26.30;100601.09;5082728;28;20041;-67
2022/06/02 10:00:39;;;;;;;68.22;18.88;;;;;;;24.29;25.72;100592.16;5084752;28;20042;-67
2022/06/02 10:03:46;;;;;;;61.03;19.00;;;;;;;24.06;26.36;100600.31;5092320;28;20486;-67
2022/06/02 10:06:51;;;;;;;65.38;19.98;;;;;;;23.85;27.02;100601.72;5076275;28;20032;-67
2022/06/02 10:09:50;;;;;;;66.40;21.70;;;;;;;23.75;28.22;100597.50;5092485;28;20130;-67
2022/06/02 10:12:58;;;;;;;56.97;21.85;;;;;;;23.66;28.56;100589.34;5076855;28;20040;-66
2022/06/02 10:15:49;;;;;;;52.20;21.40;;;;;;;23.34;29.44;100604.28;5092413;28;20058;-67
2022/06/02 10:18:52;;;;;;;67.57;22.38;;;;;;;23.13;30.71;100602.53;5076106;28;20039;-66
2022/06/02 10:21:59;;;;;;;59.47;24.55;;;;;;;22.97;31.29;100595.28;5096389;28;20047;-66
2022/06/02 10:24:53;;;;;;;73.38;28.45;;;;;;;23.30;31.04;100597.81;5080765;28;20448;-66
2022/06/02 10:27:39;;;;;;;60.55;24.15;;;;;;;23.36;31.74;100588.13;5094747;28;20028;-66
2022/06/02 10:30:11;;;;;;;52.17;22.30;;;;;;;23.10;33.17;100600.44;5096188;28;20040;-66
2022/06/02 10:33:02;;;;;;;47.55;16.52;;;;;;;23.14;33.71;100597.78;5096482;28;20032;-66
2022/06/02 10:36:17;;;;;;;43.88;15.27;;;;;;;22.95;34.81;100612.28;5095101;28;20421;-66
2022/06/02 10:39:01;;;;;;;36.78;13.98;;;;;;;22.64;35.23;100609.34;5041810;28;20374;-65
2022/06/02 10:41:55;;;;;;;32.42;13.35;;;;;;;22.57;35.62;100607.94;5053871;28;20545;-66
2022/06/02 10:44:36;;;;;;;39.55;12.20;;;;;;;22.42;36.61;100599.53;5075132;28;20409;-66
2022/06/02 10:47:33;;;;;;;39.22;11.95;;;;;;;22.42;37.22;100600.34;5094630;28;20498;-66
2022/06/02 10:50:24;;;;;;;31.95;11.20;;;;;;;22.30;36.57;100592.06;5095927;28;20515;-66
2022/06/02 10:53:03;;;;;;;37.35;12.00;;;;;;;22.26;38.17;100596.66;5095861;28;20479;-65
2022/06/02 10:56:24;;;;;;;30.25;10.18;;;;;;;22.23;38.55;100597.34;5094985;28;20128;-66
2022/06/02 10:59:30;;;;;;;38.75;11.55;;;;;;;22.26;38.38;100586.41;5063291;28;20040;-65
2022/06/02 11:02:33;;;;;;;35.63;11.70;;;;;;;22.26;39.03;100599.41;5081980;28;20130;-66
2022/06/02 11:05:27;;;;;;;32.80;12.40;;;;;;;22.16;39.13;100597.13;5095446;28;20043;-65
2022/06/02 11:08:34;;;;;;;33.80;12.82;;;;;;;22.03;39.36;100599.03;5095375;28;20121;-65
2022/06/02 11:11:07;;;;;;;38.38;12.05;;;;;;;22.02;39.53;100603.78;5095355;28;20086;-65
2022/06/02 11:14:01;;;;;;;32.67;11.23;;;;;;;21.94;39.43;100603.91;5095558;28;20508;-66
2022/06/02 11:16:59;;;;;;;42.08;12.10;;;;;;;21.91;40.09;100608.16;5079901;28;20494;-65
2022/06/02 11:20:16;;;;;;;45.33;14.73;;;;;;;21.96;40.45;100604.34;5092568;28;20394;-67
2022/06/02 11:23:19;;;;;;;34.97;15.20;;;;;;;21.85;40.67;100609.50;5028750;28;20137;-66
2022/06/02 11:25:49;;;;;;;41.22;11.75;;;;;;;21.84;40.80;100616.19;5094783;28;20028;-66
2022/06/02 11:28:45;;;;;;;41.45;11.52;;;;;;;21.77;40.91;100615.16;5095428;28;20027;-66
2022/06/02 11:31:48;;;;;;;38.30;11.60;;;;;;;21.66;40.76;100614.78;5085482;28;20049;-68
2022/06/02 11:34:47;;;;;;;53.95;11.82;;;;;;;21.56;41.86;100618.00;5077844;28;20127;-67
2022/06/02 11:37:19;;;;;;;44.65;11.55;;;;;;;21.50;42.53;100616.56;5093717;28;20040;-67
2022/06/02 11:40:10;;;;;;;34.28;11.05;;;;;;;21.49;43.16;100626.03;5095025;28;20040;-68
2022/06/02 11:42:54;;;;;;;29.05;10.27;;;;;;;21.50;43.73;100619.34;5093825;28;20032;-67
2022/06/02 11:45:54;;;;;;;38.53;11.48;;;;;;;21.52;43.63;100608.75;5093519;28;20032;-67
2022/06/02 11:48:48;;;;;;;33.78;11.45;;;;;;;21.48;44.49;100610.59;5078554;28;20463;-67
2022/06/02 11:51:39;;;;;;;30.95;13.00;;;;;;;21.43;44.32;100614.38;5094694;28;20036;-67
2022/06/02 11:54:09;;;;;;;52.65;22.10;;;;;;;21.49;44.86;100618.53;5094597;28;20103;-67
2022/06/02 11:56:45;;;;;;;40.95;21.02;;;;;;;21.44;44.12;100609.66;5094026;28;20035;-66
2022/06/02 11:59:21;;;;;;;56.75;17.52;;;;;;;21.45;45.27;100620.38;5094152;28;20040;-66
2022/06/02 12:02:02;;;;;;;39.55;16.02;;;;;;;21.47;44.55;100614.50;5094624;28;20038;-66
2022/06/02 12:04:35;;;;;;;33.20;16.73;;;;;;;21.55;46.12;100610.84;5094449;28;20036;-67
2022/06/02 12:07:22;;;;;;;34.47;16.38;;;;;;;21.41;46.38;100619.44;5093597;28;20093;-66
2022/06/02 12:10:03;;;;;;;36.92;19.13;;;;;;;21.29;47.06;100611.91;5093271;28;20060;-66
2022/06/02 12:12:41;;;;;;;41.90;19.67;;;;;;;21.20;47.30;100616.69;5094379;28;20160;-66
2022/06/02 12:15:39;;;;;;;42.92;19.17;;;;;;;21.23;47.40;100615.19;5094112;28;20039;-66
2022/06/02 12:18:14;;;;;;;41.42;16.55;;;;;;;21.20;47.73;100618.63;5094230;28;20138;-66
2022/06/02 12:21:05;;;;;;;34.50;15.50;;;;;;;21.25;47.67;100613.72;5093966;28;20032;-68
2022/06/02 12:24:13;;;;;;;43.00;17.10;;;;;;;21.13;47.85;100621.94;5094233;28;20063;-68
2022/06/02 12:27:02;;;;;;;54.95;25.67;;;;;;;21.25;47.80;100612.91;5084435;28;20040;-68
2022/06/02 12:29:53;;;;;;;51.55;27.58;;;;;;;21.21;47.73;100621.06;5093034;28;20032;-67
2022/06/02 12:32:59;;;;;;;50.72;28.30;;;;;;;21.21;47.76;100620.25;5090989;28;20028;-67
2022/06/02 12:35:35;;;;;;;50.55;29.08;;;;;;;21.15;47.84;100625.16;5093930;28;20044;-67
2022/06/02 12:38:20;;;;;;;53.58;26.58;;;;;;;21.10;47.26;100634.47;5093549;28;20028;-66
2022/06/02 12:41:24;;;;;;;48.10;20.00;;;;;;;21.16;47.43;100626.78;5092570;28;20129;-66
2022/06/02 12:44:31;;;;;;;38.10;18.92;;;;;;;21.23;47.10;100629.00;5093543;28;20104;-66
2022/06/02 12:47:20;;;;;;;32.85;18.13;;;;;;;21.22;47.91;100636.50;5093227;28;20498;-66
2022/06/02 12:49:56;;;;;;;38.30;14.13;;;;;;;21.21;47.80;100634.88;5093341;28;20036;-67
2022/06/02 12:53:01;;;;;;;33.67;11.02;;;;;;;21.27;48.13;100636.31;5093645;28;20032;-66
2022/06/02 12:55:59;;;;;;;24.25;9.55;;;;;;;21.29;48.02;100636.78;5087969;28;20036;-67
2022/06/02 12:58:44;;;;;;;38.45;11.15;;;;;;;21.35;48.68;100642.91;5091330;28;20083;-67
2022/06/02 13:01:29;;;;;;;30.15;8.57;;;;;;;21.44;49.21;100642.84;5091537;28;20043;-67
2022/06/02 13:04:31;;;;;;;25.48;7.78;;;;;;;21.61;48.11;100640.69;5091773;28;20444;-67